sensor_id;sensor_type;location;lat;lon;timestamp;temperature;humidity
38090;DHT22;23904;52.322;10.232;2023-01-05T00:01:39;10.10;99.90
38090;DHT22;23904;52.322;10.232;2023-01-05T00:04:04;10.10;99.90
38090;DHT22;23904;52.322;10.232;2023-01-05T00:06:31;10.10;99.90
38090;DHT22;23904;52.322;10.232;2023-01-05T00:08:58;10.10;99.90
38090;DHT22;23904;52.322;10.232;2023-01-05T00:11:26;10.10;99.90
38090;DHT22;23904;52.322;10.232;2023-01-05T00:14:33;10.10;99.90
38090;DHT22;23904;52.322;10.232;2023-01-05T00:17:20;10.10;99.90
38090;DHT22;23904;52.322;10.232;2023-01-05T00:20:06;10.20;99.90
38090;DHT22;23904;52.322;10.232;2023-01-05T00:23:03;10.20;99.90
38090;DHT22;23904;52.322;10.232;2023-01-05T00:25:32;10.10;99.90
38090;DHT22;23904;52.322;10.232;2023-01-05T00:28:01;10.20;99.90
38090;DHT22;23904;52.322;10.232;2023-01-05T00:30:38;10.20;99.90
38090;DHT22;23904;52.322;10.232;2023-01-05T00:33:11;10.20;99.90
38090;DHT22;23904;52.322;10.232;2023-01-05T00:35:38;10.20;99.90
38090;DHT22;23904;52.322;10.232;2023-01-05T00:38:05;10.20;99.90
38090;DHT22;23904;52.322;10.232;2023-01-05T00:40:31;10.20;99.90
38090;DHT22;23904;52.322;10.232;2023-01-05T00:42:58;10.10;99.90
38090;DHT22;23904;52.322;10.232;2023-01-05T00:45:23;10.10;99.90
38090;DHT22;23904;52.322;10.232;2023-01-05T00:47:49;10.10;99.90
38090;DHT22;23904;52.322;10.232;2023-01-05T00:50:16;10.10;99.90
38090;DHT22;23904;52.322;10.232;2023-01-05T00:52:43;10.10;99.90
38090;DHT22;23904;52.322;10.232;2023-01-05T00:55:09;10.10;99.90
38090;DHT22;23904;52.322;10.232;2023-01-05T00:57:35;10.10;99.90
38090;DHT22;23904;52.322;10.232;2023-01-05T01:00:02;10.10;99.90
38090;DHT22;23904;52.322;10.232;2023-01-05T01:02:31;10.10;99.90
38090;DHT22;23904;52.322;10.232;2023-01-05T01:04:56;10.10;99.90
38090;DHT22;23904;52.322;10.232;2023-01-05T01:07:22;10.20;99.90
38090;DHT22;23904;52.322;10.232;2023-01-05T01:09:48;10.10;99.90
38090;DHT22;23904;52.322;10.232;2023-01-05T01:12:13;10.10;99.90
38090;DHT22;23904;52.322;10.232;2023-01-05T01:14:39;10.10;99.90
38090;DHT22;23904;52.322;10.232;2023-01-05T01:17:05;10.10;99.90
38090;DHT22;23904;52.322;10.232;2023-01-05T01:19:31;10.10;99.90
38090;DHT22;23904;52.322;10.232;2023-01-05T01:21:57;10.10;99.90
38090;DHT22;23904;52.322;10.232;2023-01-05T01:24:26;10.20;99.90
38090;DHT22;23904;52.322;10.232;2023-01-05T01:26:53;10.20;99.90
38090;DHT22;23904;52.322;10.232;2023-01-05T01:29:20;10.20;99.90
38090;DHT22;23904;52.322;10.232;2023-01-05T01:31:49;10.20;99.90
38090;DHT22;23904;52.322;10.232;2023-01-05T01:34:16;10.20;99.90
38090;DHT22;23904;52.322;10.232;2023-01-05T01:36:42;10.20;99.90
38090;DHT22;23904;52.322;10.232;2023-01-05T01:39:09;10.20;99.90
38090;DHT22;23904;52.322;10.232;2023-01-05T01:41:35;10.20;99.90
38090;DHT22;23904;52.322;10.232;2023-01-05T01:44:01;10.20;99.90
38090;DHT22;23904;52.322;10.232;2023-01-05T01:46:27;10.20;99.90
38090;DHT22;23904;52.322;10.232;2023-01-05T01:48:59;10.10;99.90
38090;DHT22;23904;52.322;10.232;2023-01-05T01:51:39;10.20;99.90
38090;DHT22;23904;52.322;10.232;2023-01-05T01:54:12;10.20;99.90
38090;DHT22;23904;52.322;10.232;2023-01-05T01:56:44;10.10;99.90
38090;DHT22;23904;52.322;10.232;2023-01-05T01:59:12;10.10;99.90
38090;DHT22;23904;52.322;10.232;2023-01-05T02:01:38;10.10;99.90
38090;DHT22;23904;52.322;10.232;2023-01-05T02:04:05;10.10;99.90
38090;DHT22;23904;52.322;10.232;2023-01-05T02:06:31;10.10;99.90
38090;DHT22;23904;52.322;10.232;2023-01-05T02:08:56;10.10;99.90
38090;DHT22;23904;52.322;10.232;2023-01-05T02:11:49;10.10;99.90
38090;DHT22;23904;52.322;10.232;2023-01-05T02:14:34;10.10;99.90
38090;DHT22;23904;52.322;10.232;2023-01-05T02:17:39;10.20;99.90
38090;DHT22;23904;52.322;10.232;2023-01-05T02:20:31;10.20;99.90
38090;DHT22;23904;52.322;10.232;2023-01-05T02:23:24;10.20;99.90
38090;DHT22;23904;52.322;10.232;2023-01-05T02:26:20;10.20;99.90
38090;DHT22;23904;52.322;10.232;2023-01-05T02:29:08;10.20;99.90
38090;DHT22;23904;52.322;10.232;2023-01-05T02:34:46;10.20;99.90
38090;DHT22;23904;52.322;10.232;2023-01-05T02:38:04;10.10;99.90
38090;DHT22;23904;52.322;10.232;2023-01-05T02:40:47;10.10;99.90
38090;DHT22;23904;52.322;10.232;2023-01-05T02:43:16;10.10;99.90
38090;DHT22;23904;52.322;10.232;2023-01-05T02:45:46;10.10;99.90
38090;DHT22;23904;52.322;10.232;2023-01-05T02:48:12;10.00;99.90
38090;DHT22;23904;52.322;10.232;2023-01-05T02:50:42;9.90;99.90
38090;DHT22;23904;52.322;10.232;2023-01-05T02:53:29;9.90;99.90
38090;DHT22;23904;52.322;10.232;2023-01-05T02:56:15;9.80;99.90
38090;DHT22;23904;52.322;10.232;2023-01-05T02:58:55;9.70;99.90
38090;DHT22;23904;52.322;10.232;2023-01-05T03:01:26;9.50;99.90
38090;DHT22;23904;52.322;10.232;2023-01-05T03:04:08;9.40;99.90
38090;DHT22;23904;52.322;10.232;2023-01-05T03:06:39;9.40;99.90
38090;DHT22;23904;52.322;10.232;2023-01-05T03:09:13;9.30;99.90
38090;DHT22;23904;52.322;10.232;2023-01-05T03:11:52;9.40;99.90
38090;DHT22;23904;52.322;10.232;2023-01-05T03:14:45;9.40;99.90
38090;DHT22;23904;52.322;10.232;2023-01-05T03:17:16;9.30;99.90
38090;DHT22;23904;52.322;10.232;2023-01-05T03:19:48;9.30;99.90
38090;DHT22;23904;52.322;10.232;2023-01-05T03:22:19;9.30;99.90
38090;DHT22;23904;52.322;10.232;2023-01-05T03:25:07;9.30;99.90
38090;DHT22;23904;52.322;10.232;2023-01-05T03:27:54;9.20;99.90
38090;DHT22;23904;52.322;10.232;2023-01-05T03:31:03;9.20;99.90
38090;DHT22;23904;52.322;10.232;2023-01-05T03:34:13;9.30;99.90
38090;DHT22;23904;52.322;10.232;2023-01-05T03:37:09;9.30;99.90
38090;DHT22;23904;52.322;10.232;2023-01-05T03:39:41;9.30;99.90
38090;DHT22;23904;52.322;10.232;2023-01-05T03:42:09;9.30;99.90
38090;DHT22;23904;52.322;10.232;2023-01-05T03:44:38;9.30;99.90
38090;DHT22;23904;52.322;10.232;2023-01-05T03:47:04;9.30;99.90
38090;DHT22;23904;52.322;10.232;2023-01-05T03:49:30;9.30;99.90
38090;DHT22;23904;52.322;10.232;2023-01-05T03:51:56;9.30;99.90
38090;DHT22;23904;52.322;10.232;2023-01-05T03:54:21;9.30;99.90
38090;DHT22;23904;52.322;10.232;2023-01-05T03:56:47;9.30;99.90
38090;DHT22;23904;52.322;10.232;2023-01-05T03:59:12;9.30;99.90
38090;DHT22;23904;52.322;10.232;2023-01-05T04:01:38;9.30;99.90
38090;DHT22;23904;52.322;10.232;2023-01-05T04:04:04;9.30;99.90
38090;DHT22;23904;52.322;10.232;2023-01-05T04:06:29;9.30;99.90
38090;DHT22;23904;52.322;10.232;2023-01-05T04:08:55;9.40;99.90
38090;DHT22;23904;52.322;10.232;2023-01-05T04:11:22;9.40;99.90
38090;DHT22;23904;52.322;10.232;2023-01-05T04:13:48;9.40;99.90
38090;DHT22;23904;52.322;10.232;2023-01-05T04:16:14;9.40;99.90
38090;DHT22;23904;52.322;10.232;2023-01-05T04:18:41;9.40;99.90
38090;DHT22;23904;52.322;10.232;2023-01-05T04:21:09;9.40;99.90
38090;DHT22;23904;52.322;10.232;2023-01-05T04:23:35;9.40;99.90
38090;DHT22;23904;52.322;10.232;2023-01-05T04:26:03;9.40;99.90
38090;DHT22;23904;52.322;10.232;2023-01-05T04:28:29;9.40;99.90
38090;DHT22;23904;52.322;10.232;2023-01-05T04:30:55;9.50;99.90
38090;DHT22;23904;52.322;10.232;2023-01-05T04:33:21;9.50;99.90
38090;DHT22;23904;52.322;10.232;2023-01-05T04:35:48;9.50;99.90
38090;DHT22;23904;52.322;10.232;2023-01-05T04:38:14;9.50;99.90
38090;DHT22;23904;52.322;10.232;2023-01-05T04:40:40;9.40;99.90
38090;DHT22;23904;52.322;10.232;2023-01-05T04:43:06;9.50;99.90
38090;DHT22;23904;52.322;10.232;2023-01-05T04:45:33;9.50;99.90
38090;DHT22;23904;52.322;10.232;2023-01-05T04:47:59;9.40;99.90
38090;DHT22;23904;52.322;10.232;2023-01-05T04:50:26;9.50;99.90
38090;DHT22;23904;52.322;10.232;2023-01-05T04:52:53;9.40;99.90
38090;DHT22;23904;52.322;10.232;2023-01-05T04:55:18;9.40;99.90
38090;DHT22;23904;52.322;10.232;2023-01-05T04:57:44;9.40;99.90
38090;DHT22;23904;52.322;10.232;2023-01-05T05:00:10;9.40;99.90
38090;DHT22;23904;52.322;10.232;2023-01-05T05:02:36;9.30;99.90
38090;DHT22;23904;52.322;10.232;2023-01-05T05:05:02;9.40;99.90
38090;DHT22;23904;52.322;10.232;2023-01-05T05:07:28;9.40;99.90
38090;DHT22;23904;52.322;10.232;2023-01-05T05:09:53;9.30;99.90
38090;DHT22;23904;52.322;10.232;2023-01-05T05:12:19;9.30;99.90
38090;DHT22;23904;52.322;10.232;2023-01-05T05:14:48;9.30;99.90
38090;DHT22;23904;52.322;10.232;2023-01-05T05:17:15;9.30;99.90
38090;DHT22;23904;52.322;10.232;2023-01-05T05:19:42;9.30;99.90
38090;DHT22;23904;52.322;10.232;2023-01-05T05:22:08;9.30;99.90
38090;DHT22;23904;52.322;10.232;2023-01-05T05:24:34;9.30;99.90
38090;DHT22;23904;52.322;10.232;2023-01-05T05:27:00;9.30;99.90
38090;DHT22;23904;52.322;10.232;2023-01-05T05:29:26;9.30;99.90
38090;DHT22;23904;52.322;10.232;2023-01-05T05:31:51;9.20;99.90
38090;DHT22;23904;52.322;10.232;2023-01-05T05:34:17;9.30;99.90
38090;DHT22;23904;52.322;10.232;2023-01-05T05:36:43;9.30;99.90
38090;DHT22;23904;52.322;10.232;2023-01-05T05:39:12;9.30;99.90
38090;DHT22;23904;52.322;10.232;2023-01-05T05:41:39;9.30;99.90
38090;DHT22;23904;52.322;10.232;2023-01-05T05:44:05;9.30;99.90
38090;DHT22;23904;52.322;10.232;2023-01-05T05:46:33;9.30;99.90
38090;DHT22;23904;52.322;10.232;2023-01-05T05:48:59;9.30;99.90
38090;DHT22;23904;52.322;10.232;2023-01-05T05:51:25;9.30;99.90
38090;DHT22;23904;52.322;10.232;2023-01-05T05:53:51;9.30;99.90
38090;DHT22;23904;52.322;10.232;2023-01-05T05:56:17;9.30;99.90
38090;DHT22;23904;52.322;10.232;2023-01-05T05:58:43;9.40;99.90
38090;DHT22;23904;52.322;10.232;2023-01-05T06:01:09;9.30;99.90
38090;DHT22;23904;52.322;10.232;2023-01-05T06:03:36;9.30;99.90
38090;DHT22;23904;52.322;10.232;2023-01-05T06:06:01;9.30;99.90
38090;DHT22;23904;52.322;10.232;2023-01-05T06:08:27;9.30;99.90
38090;DHT22;23904;52.322;10.232;2023-01-05T06:10:54;9.30;99.90
38090;DHT22;23904;52.322;10.232;2023-01-05T06:13:21;9.40;99.90
38090;DHT22;23904;52.322;10.232;2023-01-05T06:15:47;9.40;99.90
38090;DHT22;23904;52.322;10.232;2023-01-05T06:18:13;9.40;99.90
38090;DHT22;23904;52.322;10.232;2023-01-05T06:20:39;9.40;99.90
38090;DHT22;23904;52.322;10.232;2023-01-05T06:23:06;9.30;99.90
38090;DHT22;23904;52.322;10.232;2023-01-05T06:25:32;9.40;99.90
38090;DHT22;23904;52.322;10.232;2023-01-05T06:27:58;9.40;99.90
38090;DHT22;23904;52.322;10.232;2023-01-05T06:30:24;9.40;99.90
38090;DHT22;23904;52.322;10.232;2023-01-05T06:32:49;9.40;99.90
38090;DHT22;23904;52.322;10.232;2023-01-05T06:35:15;9.40;99.90
38090;DHT22;23904;52.322;10.232;2023-01-05T06:37:41;9.40;99.90
38090;DHT22;23904;52.322;10.232;2023-01-05T06:40:07;9.30;99.90
38090;DHT22;23904;52.322;10.232;2023-01-05T06:42:36;9.40;99.90
38090;DHT22;23904;52.322;10.232;2023-01-05T06:45:03;9.30;99.90
38090;DHT22;23904;52.322;10.232;2023-01-05T06:47:29;9.30;99.90
38090;DHT22;23904;52.322;10.232;2023-01-05T06:49:54;9.30;99.90
38090;DHT22;23904;52.322;10.232;2023-01-05T06:52:20;9.30;99.90
38090;DHT22;23904;52.322;10.232;2023-01-05T06:54:46;9.20;99.90
38090;DHT22;23904;52.322;10.232;2023-01-05T06:57:11;9.20;99.90
38090;DHT22;23904;52.322;10.232;2023-01-05T06:59:37;9.10;99.90
38090;DHT22;23904;52.322;10.232;2023-01-05T07:02:03;9.10;99.90
38090;DHT22;23904;52.322;10.232;2023-01-05T07:04:29;9.10;99.90
38090;DHT22;23904;52.322;10.232;2023-01-05T07:06:54;9.10;99.90
38090;DHT22;23904;52.322;10.232;2023-01-05T07:09:20;9.10;99.90
38090;DHT22;23904;52.322;10.232;2023-01-05T07:11:46;9.10;99.90
38090;DHT22;23904;52.322;10.232;2023-01-05T07:14:11;9.10;99.90
38090;DHT22;23904;52.322;10.232;2023-01-05T07:16:36;9.10;99.90
38090;DHT22;23904;52.322;10.232;2023-01-05T07:19:02;9.10;99.90
38090;DHT22;23904;52.322;10.232;2023-01-05T07:21:28;9.10;99.90
38090;DHT22;23904;52.322;10.232;2023-01-05T07:23:54;9.10;99.90
38090;DHT22;23904;52.322;10.232;2023-01-05T07:26:20;9.10;99.90
38090;DHT22;23904;52.322;10.232;2023-01-05T07:28:45;9.10;99.90
38090;DHT22;23904;52.322;10.232;2023-01-05T07:31:11;9.10;99.90
38090;DHT22;23904;52.322;10.232;2023-01-05T07:33:36;9.10;99.90
38090;DHT22;23904;52.322;10.232;2023-01-05T07:36:03;9.10;99.90
38090;DHT22;23904;52.322;10.232;2023-01-05T07:38:31;9.10;99.90
38090;DHT22;23904;52.322;10.232;2023-01-05T07:40:58;9.10;99.90
38090;DHT22;23904;52.322;10.232;2023-01-05T07:43:25;9.10;99.90
38090;DHT22;23904;52.322;10.232;2023-01-05T07:45:55;9.20;99.90
38090;DHT22;23904;52.322;10.232;2023-01-05T07:48:21;9.20;99.90
38090;DHT22;23904;52.322;10.232;2023-01-05T07:50:46;9.20;99.90
38090;DHT22;23904;52.322;10.232;2023-01-05T07:53:12;9.20;99.90
38090;DHT22;23904;52.322;10.232;2023-01-05T07:55:37;9.20;99.90
38090;DHT22;23904;52.322;10.232;2023-01-05T07:58:03;9.20;99.90
38090;DHT22;23904;52.322;10.232;2023-01-05T08:00:29;9.10;99.90
38090;DHT22;23904;52.322;10.232;2023-01-05T08:02:55;9.20;99.90
38090;DHT22;23904;52.322;10.232;2023-01-05T08:05:20;9.20;99.90
38090;DHT22;23904;52.322;10.232;2023-01-05T08:07:46;9.20;99.90
38090;DHT22;23904;52.322;10.232;2023-01-05T08:10:11;9.20;99.90
38090;DHT22;23904;52.322;10.232;2023-01-05T08:13:00;9.20;99.90
38090;DHT22;23904;52.322;10.232;2023-01-05T08:15:46;9.20;99.90
38090;DHT22;23904;52.322;10.232;2023-01-05T08:18:11;9.10;99.90
38090;DHT22;23904;52.322;10.232;2023-01-05T08:20:37;9.10;99.90
38090;DHT22;23904;52.322;10.232;2023-01-05T08:23:02;9.10;99.90
38090;DHT22;23904;52.322;10.232;2023-01-05T08:25:28;9.10;99.90
38090;DHT22;23904;52.322;10.232;2023-01-05T08:27:54;9.10;99.90
38090;DHT22;23904;52.322;10.232;2023-01-05T08:30:19;9.10;99.90
38090;DHT22;23904;52.322;10.232;2023-01-05T08:32:45;9.10;99.90
38090;DHT22;23904;52.322;10.232;2023-01-05T08:35:11;9.10;99.90
38090;DHT22;23904;52.322;10.232;2023-01-05T08:37:36;9.10;99.90
38090;DHT22;23904;52.322;10.232;2023-01-05T08:40:02;9.20;99.90
38090;DHT22;23904;52.322;10.232;2023-01-05T08:42:28;9.20;99.90
38090;DHT22;23904;52.322;10.232;2023-01-05T08:44:53;9.20;99.90
38090;DHT22;23904;52.322;10.232;2023-01-05T08:47:19;9.20;99.90
38090;DHT22;23904;52.322;10.232;2023-01-05T08:49:44;9.20;99.90
38090;DHT22;23904;52.322;10.232;2023-01-05T08:52:11;9.20;99.90
38090;DHT22;23904;52.322;10.232;2023-01-05T08:54:36;9.30;99.90
38090;DHT22;23904;52.322;10.232;2023-01-05T08:57:02;9.30;99.90
38090;DHT22;23904;52.322;10.232;2023-01-05T08:59:28;9.20;99.90
38090;DHT22;23904;52.322;10.232;2023-01-05T09:01:53;9.30;99.90
38090;DHT22;23904;52.322;10.232;2023-01-05T09:04:19;9.20;99.90
38090;DHT22;23904;52.322;10.232;2023-01-05T09:06:44;9.30;99.90
38090;DHT22;23904;52.322;10.232;2023-01-05T09:09:10;9.30;99.90
38090;DHT22;23904;52.322;10.232;2023-01-05T09:11:35;9.30;99.90
38090;DHT22;23904;52.322;10.232;2023-01-05T09:14:02;9.30;99.90
38090;DHT22;23904;52.322;10.232;2023-01-05T09:16:30;9.30;99.90
38090;DHT22;23904;52.322;10.232;2023-01-05T09:18:58;9.30;99.90
38090;DHT22;23904;52.322;10.232;2023-01-05T09:21:24;9.30;99.90
38090;DHT22;23904;52.322;10.232;2023-01-05T09:23:49;9.30;99.90
38090;DHT22;23904;52.322;10.232;2023-01-05T09:26:16;9.30;99.90
38090;DHT22;23904;52.322;10.232;2023-01-05T09:28:42;9.40;99.90
38090;DHT22;23904;52.322;10.232;2023-01-05T09:31:15;9.40;99.90
38090;DHT22;23904;52.322;10.232;2023-01-05T09:33:42;9.40;99.90
38090;DHT22;23904;52.322;10.232;2023-01-05T09:36:09;9.40;99.90
38090;DHT22;23904;52.322;10.232;2023-01-05T09:38:35;9.30;99.90
38090;DHT22;23904;52.322;10.232;2023-01-05T09:41:21;9.40;99.90
38090;DHT22;23904;52.322;10.232;2023-01-05T09:43:51;9.30;99.90
38090;DHT22;23904;52.322;10.232;2023-01-05T09:46:22;9.40;99.90
38090;DHT22;23904;52.322;10.232;2023-01-05T09:48:54;9.40;99.90
38090;DHT22;23904;52.322;10.232;2023-01-05T09:51:21;9.40;99.90
38090;DHT22;23904;52.322;10.232;2023-01-05T09:53:48;9.40;99.90
38090;DHT22;23904;52.322;10.232;2023-01-05T09:56:35;9.40;99.90
38090;DHT22;23904;52.322;10.232;2023-01-05T09:59:28;9.40;99.90
38090;DHT22;23904;52.322;10.232;2023-01-05T10:02:11;9.40;99.90
38090;DHT22;23904;52.322;10.232;2023-01-05T10:04:40;9.40;99.90
38090;DHT22;23904;52.322;10.232;2023-01-05T10:07:14;9.50;99.90
38090;DHT22;23904;52.322;10.232;2023-01-05T10:09:45;9.50;99.90
38090;DHT22;23904;52.322;10.232;2023-01-05T10:12:30;9.70;99.90
38090;DHT22;23904;52.322;10.232;2023-01-05T10:15:20;9.70;99.90
38090;DHT22;23904;52.322;10.232;2023-01-05T10:17:46;9.70;99.90
38090;DHT22;23904;52.322;10.232;2023-01-05T10:20:44;9.90;99.90
38090;DHT22;23904;52.322;10.232;2023-01-05T10:29:45;9.90;99.90
38090;DHT22;23904;52.322;10.232;2023-01-05T10:34:58;9.90;99.90
38090;DHT22;23904;52.322;10.232;2023-01-05T10:37:43;9.90;99.90
38090;DHT22;23904;52.322;10.232;2023-01-05T10:40:37;9.90;99.90
38090;DHT22;23904;52.322;10.232;2023-01-05T10:46:31;9.40;99.90
38090;DHT22;23904;52.322;10.232;2023-01-05T10:48:58;9.20;99.90
38090;DHT22;23904;52.322;10.232;2023-01-05T10:51:24;9.00;99.90
38090;DHT22;23904;52.322;10.232;2023-01-05T10:53:51;8.90;99.90
38090;DHT22;23904;52.322;10.232;2023-01-05T10:56:24;8.80;99.90
38090;DHT22;23904;52.322;10.232;2023-01-05T10:59:10;8.80;99.90
38090;DHT22;23904;52.322;10.232;2023-01-05T11:01:37;8.80;99.90
38090;DHT22;23904;52.322;10.232;2023-01-05T11:04:21;8.80;99.90
38090;DHT22;23904;52.322;10.232;2023-01-05T11:06:48;8.60;99.90
38090;DHT22;23904;52.322;10.232;2023-01-05T11:09:18;8.60;99.90
38090;DHT22;23904;52.322;10.232;2023-01-05T11:14:19;8.50;99.90
38090;DHT22;23904;52.322;10.232;2023-01-05T11:16:47;8.40;99.90
38090;DHT22;23904;52.322;10.232;2023-01-05T11:19:20;8.40;99.90
38090;DHT22;23904;52.322;10.232;2023-01-05T11:21:50;8.40;99.90
38090;DHT22;23904;52.322;10.232;2023-01-05T11:24:36;8.40;99.90
38090;DHT22;23904;52.322;10.232;2023-01-05T11:27:22;8.40;99.90
38090;DHT22;23904;52.322;10.232;2023-01-05T11:32:43;8.30;99.90
38090;DHT22;23904;52.322;10.232;2023-01-05T11:35:20;8.30;99.90
38090;DHT22;23904;52.322;10.232;2023-01-05T11:37:52;8.30;99.90
38090;DHT22;23904;52.322;10.232;2023-01-05T11:40:18;8.40;99.90
38090;DHT22;23904;52.322;10.232;2023-01-05T11:42:46;8.40;99.90
38090;DHT22;23904;52.322;10.232;2023-01-05T11:45:22;8.30;99.90
38090;DHT22;23904;52.322;10.232;2023-01-05T11:48:01;8.30;99.90
38090;DHT22;23904;52.322;10.232;2023-01-05T11:50:50;8.30;99.90
38090;DHT22;23904;52.322;10.232;2023-01-05T11:58:51;8.40;99.90
38090;DHT22;23904;52.322;10.232;2023-01-05T12:07:23;8.50;99.90
38090;DHT22;23904;52.322;10.232;2023-01-05T12:09:58;8.50;99.90
38090;DHT22;23904;52.322;10.232;2023-01-05T12:13:01;8.40;99.90
38090;DHT22;23904;52.322;10.232;2023-01-05T12:15:51;8.40;99.90
38090;DHT22;23904;52.322;10.232;2023-01-05T12:21:23;8.30;99.90
38090;DHT22;23904;52.322;10.232;2023-01-05T12:24:27;8.30;99.90
38090;DHT22;23904;52.322;10.232;2023-01-05T12:26:55;8.40;99.90
38090;DHT22;23904;52.322;10.232;2023-01-05T12:32:36;8.40;99.90
38090;DHT22;23904;52.322;10.232;2023-01-05T12:49:56;8.40;99.90
38090;DHT22;23904;52.322;10.232;2023-01-05T12:52:30;8.40;99.90
38090;DHT22;23904;52.322;10.232;2023-01-05T12:55:30;8.30;99.90
38090;DHT22;23904;52.322;10.232;2023-01-05T12:58:04;8.40;99.90
38090;DHT22;23904;52.322;10.232;2023-01-05T13:00:36;8.40;99.90
38090;DHT22;23904;52.322;10.232;2023-01-05T13:03:16;8.40;99.90
38090;DHT22;23904;52.322;10.232;2023-01-05T13:05:56;8.50;99.90
38090;DHT22;23904;52.322;10.232;2023-01-05T13:14:04;8.50;99.90
38090;DHT22;23904;52.322;10.232;2023-01-05T13:16:41;8.60;99.90
38090;DHT22;23904;52.322;10.232;2023-01-05T13:19:17;8.50;99.90
38090;DHT22;23904;52.322;10.232;2023-01-05T13:21:46;8.60;99.90
38090;DHT22;23904;52.322;10.232;2023-01-05T13:24:16;8.60;99.90
38090;DHT22;23904;52.322;10.232;2023-01-05T13:26:53;8.50;99.90
38090;DHT22;23904;52.322;10.232;2023-01-05T13:29:28;8.50;99.90
38090;DHT22;23904;52.322;10.232;2023-01-05T13:39:08;8.40;99.90
38090;DHT22;23904;52.322;10.232;2023-01-05T13:42:29;8.40;99.90
38090;DHT22;23904;52.322;10.232;2023-01-05T13:45:54;8.40;99.90
38090;DHT22;23904;52.322;10.232;2023-01-05T13:50:58;8.40;99.90
38090;DHT22;23904;52.322;10.232;2023-01-05T13:53:45;8.40;99.90
38090;DHT22;23904;52.322;10.232;2023-01-05T13:56:26;8.40;99.90
38090;DHT22;23904;52.322;10.232;2023-01-05T14:01:53;8.50;99.90
38090;DHT22;23904;52.322;10.232;2023-01-05T14:04:29;8.50;99.90
38090;DHT22;23904;52.322;10.232;2023-01-05T14:07:02;8.50;99.90
38090;DHT22;23904;52.322;10.232;2023-01-05T14:25:51;8.70;99.90
38090;DHT22;23904;52.322;10.232;2023-01-05T14:33:52;8.70;99.90
38090;DHT22;23904;52.322;10.232;2023-01-05T14:39:20;8.70;99.90
38090;DHT22;23904;52.322;10.232;2023-01-05T14:44:43;8.80;99.90
38090;DHT22;23904;52.322;10.232;2023-01-05T14:47:11;8.80;99.90
38090;DHT22;23904;52.322;10.232;2023-01-05T14:49:51;8.80;99.90
38090;DHT22;23904;52.322;10.232;2023-01-05T14:55:40;8.80;99.90
38090;DHT22;23904;52.322;10.232;2023-01-05T15:04:04;8.70;99.90
38090;DHT22;23904;52.322;10.232;2023-01-05T15:10:00;8.70;99.90
38090;DHT22;23904;52.322;10.232;2023-01-05T15:12:52;8.70;99.90
38090;DHT22;23904;52.322;10.232;2023-01-05T15:16:17;8.60;99.90
38090;DHT22;23904;52.322;10.232;2023-01-05T15:21:53;8.60;99.90
38090;DHT22;23904;52.322;10.232;2023-01-05T15:30:40;8.50;99.90
38090;DHT22;23904;52.322;10.232;2023-01-05T15:36:22;8.50;99.90
38090;DHT22;23904;52.322;10.232;2023-01-05T15:38:51;8.50;99.90
38090;DHT22;23904;52.322;10.232;2023-01-05T15:41:19;8.50;99.90
38090;DHT22;23904;52.322;10.232;2023-01-05T15:43:46;8.50;99.90
38090;DHT22;23904;52.322;10.232;2023-01-05T15:46:17;8.40;99.90
38090;DHT22;23904;52.322;10.232;2023-01-05T15:48:46;8.40;99.90
38090;DHT22;23904;52.322;10.232;2023-01-05T15:51:24;8.40;99.90
38090;DHT22;23904;52.322;10.232;2023-01-05T15:53:57;8.40;99.90
38090;DHT22;23904;52.322;10.232;2023-01-05T15:56:31;8.40;99.90
38090;DHT22;23904;52.322;10.232;2023-01-05T15:59:03;8.40;99.90
38090;DHT22;23904;52.322;10.232;2023-01-05T16:01:29;8.40;99.90
38090;DHT22;23904;52.322;10.232;2023-01-05T16:04:08;8.30;99.90
38090;DHT22;23904;52.322;10.232;2023-01-05T16:06:39;8.30;99.90
38090;DHT22;23904;52.322;10.232;2023-01-05T16:09:20;8.30;99.90
38090;DHT22;23904;52.322;10.232;2023-01-05T16:12:08;8.30;99.90
38090;DHT22;23904;52.322;10.232;2023-01-05T16:14:55;8.20;99.90
38090;DHT22;23904;52.322;10.232;2023-01-05T16:17:28;8.20;99.90
38090;DHT22;23904;52.322;10.232;2023-01-05T16:19:59;8.30;99.90
38090;DHT22;23904;52.322;10.232;2023-01-05T16:22:37;8.20;99.90
38090;DHT22;23904;52.322;10.232;2023-01-05T16:27:58;8.30;99.90
38090;DHT22;23904;52.322;10.232;2023-01-05T16:30:37;8.30;99.90
38090;DHT22;23904;52.322;10.232;2023-01-05T16:35:48;8.30;99.90
38090;DHT22;23904;52.322;10.232;2023-01-05T16:38:21;8.30;99.90
38090;DHT22;23904;52.322;10.232;2023-01-05T16:43:34;8.30;99.90
38090;DHT22;23904;52.322;10.232;2023-01-05T16:48:43;8.20;99.90
38090;DHT22;23904;52.322;10.232;2023-01-05T16:51:14;8.20;99.90
38090;DHT22;23904;52.322;10.232;2023-01-05T16:53:50;8.20;99.90
38090;DHT22;23904;52.322;10.232;2023-01-05T16:56:21;8.20;99.90
38090;DHT22;23904;52.322;10.232;2023-01-05T17:02:00;8.20;99.90
38090;DHT22;23904;52.322;10.232;2023-01-05T17:04:26;8.20;99.90
38090;DHT22;23904;52.322;10.232;2023-01-05T17:06:52;8.20;99.90
38090;DHT22;23904;52.322;10.232;2023-01-05T17:09:25;8.20;99.90
38090;DHT22;23904;52.322;10.232;2023-01-05T17:11:52;8.20;99.90
38090;DHT22;23904;52.322;10.232;2023-01-05T17:14:18;8.20;99.90
38090;DHT22;23904;52.322;10.232;2023-01-05T17:16:44;8.10;99.90
38090;DHT22;23904;52.322;10.232;2023-01-05T17:19:16;8.10;99.90
38090;DHT22;23904;52.322;10.232;2023-01-05T17:21:49;8.20;99.90
38090;DHT22;23904;52.322;10.232;2023-01-05T17:24:21;8.20;99.90
38090;DHT22;23904;52.322;10.232;2023-01-05T17:26:48;8.20;99.90
38090;DHT22;23904;52.322;10.232;2023-01-05T17:29:24;8.20;99.90
38090;DHT22;23904;52.322;10.232;2023-01-05T17:31:51;8.20;99.90
38090;DHT22;23904;52.322;10.232;2023-01-05T17:34:19;8.20;99.90
38090;DHT22;23904;52.322;10.232;2023-01-05T17:36:46;8.20;99.90
38090;DHT22;23904;52.322;10.232;2023-01-05T17:39:17;8.30;99.90
38090;DHT22;23904;52.322;10.232;2023-01-05T17:41:43;8.20;99.90
38090;DHT22;23904;52.322;10.232;2023-01-05T17:44:09;8.30;99.90
38090;DHT22;23904;52.322;10.232;2023-01-05T17:46:38;8.30;99.90
38090;DHT22;23904;52.322;10.232;2023-01-05T17:49:06;8.20;99.90
38090;DHT22;23904;52.322;10.232;2023-01-05T17:51:33;8.30;99.90
38090;DHT22;23904;52.322;10.232;2023-01-05T17:53:59;8.30;99.90
38090;DHT22;23904;52.322;10.232;2023-01-05T17:56:25;8.20;99.90
38090;DHT22;23904;52.322;10.232;2023-01-05T17:58:51;8.30;99.90
38090;DHT22;23904;52.322;10.232;2023-01-05T18:01:17;8.20;99.90
38090;DHT22;23904;52.322;10.232;2023-01-05T18:03:43;8.30;99.90
38090;DHT22;23904;52.322;10.232;2023-01-05T18:06:08;8.30;99.90
38090;DHT22;23904;52.322;10.232;2023-01-05T18:08:35;8.40;99.90
38090;DHT22;23904;52.322;10.232;2023-01-05T18:11:02;8.40;99.90
38090;DHT22;23904;52.322;10.232;2023-01-05T18:13:29;8.40;99.90